createdAt,value
2018-08-10T00:00:25.199Z,7.10
2018-08-10T00:02:54.087Z,7.27
2018-08-10T00:05:22.963Z,7.30
2018-08-10T00:07:52.116Z,6.83
2018-08-10T00:10:21.064Z,7.57
2018-08-10T00:12:49.932Z,7.47
2018-08-10T00:15:18.809Z,7.20
2018-08-10T00:17:47.939Z,7.07
2018-08-10T00:20:16.848Z,7.77
2018-08-10T00:22:45.773Z,7.10
2018-08-10T00:25:17.582Z,6.97
2018-08-10T00:27:46.472Z,7.13
2018-08-10T00:30:18.053Z,7.30
2018-08-10T00:32:48.299Z,7.40
2018-08-10T00:35:17.323Z,7.50
2018-08-10T00:37:47.549Z,7.30
2018-08-10T00:40:20.572Z,6.80
2018-08-10T00:42:49.791Z,6.70
2018-08-10T00:45:19.567Z,7.10
2018-08-10T00:47:49.011Z,7.07
2018-08-10T00:50:18.416Z,7.03
2018-08-10T00:52:48.008Z,6.60
2018-08-10T00:55:18.558Z,7.10
2018-08-10T00:57:48.100Z,6.10
2018-08-10T01:00:21.759Z,6.90
2018-08-10T01:02:51.266Z,6.10
2018-08-10T01:05:20.175Z,6.80
2018-08-10T01:07:49.085Z,6.70
2018-08-10T01:10:19.277Z,7.00
2018-08-10T01:12:48.156Z,6.83
2018-08-10T01:15:17.702Z,6.87
2018-08-10T01:17:46.712Z,7.00
2018-08-10T01:20:18.991Z,6.60
2018-08-10T01:22:53.517Z,7.30
2018-08-10T01:25:23.807Z,6.60
2018-08-10T01:27:57.791Z,6.60
2018-08-10T01:30:27.904Z,6.10
2018-08-10T01:32:57.125Z,6.13
2018-08-10T01:35:26.712Z,6.00
2018-08-10T01:37:56.891Z,5.80
2018-08-10T01:40:25.835Z,5.43
2018-08-10T01:42:54.722Z,5.30
2018-08-10T01:45:23.592Z,5.60
2018-08-10T01:50:28.167Z,4.80
2018-08-10T01:52:57.240Z,5.40
2018-08-10T01:55:26.569Z,5.30
2018-08-10T01:57:55.467Z,4.60
2018-08-10T02:00:24.627Z,5.20
2018-08-10T02:02:53.514Z,5.07
2018-08-10T02:05:22.405Z,4.63
2018-08-10T02:07:51.287Z,4.37
2018-08-10T02:10:20.497Z,4.30
2018-08-10T02:12:51.874Z,4.40
2018-08-10T02:15:20.789Z,4.47
2018-08-10T02:17:49.778Z,4.33
2018-08-10T02:20:20.245Z,4.50
2018-08-10T02:22:49.170Z,4.30
2018-08-10T02:25:19.675Z,4.30
2018-08-10T02:27:49.511Z,3.90
2018-08-10T02:30:19.596Z,3.63
2018-08-10T02:32:49.508Z,4.20
2018-08-10T02:35:18.410Z,3.80
2018-08-10T02:37:47.299Z,4.23
2018-08-10T02:40:18.434Z,3.77
2018-08-10T02:42:48.595Z,4.17
2018-08-10T02:45:17.861Z,3.80
2018-08-10T02:47:47.393Z,3.67
2018-08-10T02:50:16.269Z,3.90
2018-08-10T02:52:45.451Z,4.30
2018-08-10T02:55:14.695Z,3.73
2018-08-10T02:57:43.672Z,3.70
2018-08-10T03:00:14.274Z,3.57
2018-08-10T03:02:44.015Z,3.30
2018-08-10T03:05:12.946Z,3.63
2018-08-10T03:07:42.617Z,3.80
2018-08-10T03:10:12.761Z,3.03
2018-08-10T03:12:41.700Z,3.13
2018-08-10T03:15:13.247Z,3.43
2018-08-10T03:17:42.655Z,3.37
2018-08-10T03:20:11.858Z,3.10
2018-08-10T03:22:40.932Z,3.10
2018-08-10T03:25:11.179Z,3.07
2018-08-10T03:27:40.057Z,3.10
2018-08-10T03:30:10.217Z,3.10
2018-08-10T03:32:39.367Z,3.30
2018-08-10T03:35:08.694Z,3.10
2018-08-10T03:37:38.075Z,3.10
2018-08-10T03:40:09.350Z,2.90
2018-08-10T03:42:38.254Z,2.80
2018-08-10T03:45:07.750Z,2.50
2018-08-10T03:47:36.643Z,3.00
2018-08-10T03:50:07.170Z,3.10
2018-08-10T03:52:36.071Z,2.43
2018-08-10T03:55:05.669Z,3.50
2018-08-10T03:57:34.567Z,2.70
2018-08-10T04:00:04.398Z,2.57
2018-08-10T04:02:33.255Z,2.63
2018-08-10T04:05:02.475Z,2.93
2018-08-10T04:07:31.616Z,2.67
2018-08-10T04:10:00.822Z,2.87
2018-08-10T04:12:29.943Z,3.07
2018-08-10T04:14:58.833Z,3.30
2018-08-10T04:17:28.039Z,2.77
2018-08-10T04:19:56.931Z,2.97
2018-08-10T04:22:26.193Z,2.60
2018-08-10T04:24:55.078Z,2.50
2018-08-10T04:27:24.183Z,2.90
2018-08-10T04:29:53.067Z,2.80
2018-08-10T04:32:21.955Z,3.17
2018-08-10T04:34:50.870Z,2.60
2018-08-10T04:37:20.256Z,2.53
2018-08-10T04:39:49.146Z,2.70
2018-08-10T04:42:24.700Z,2.47
2018-08-10T04:44:53.597Z,3.50
2018-08-10T04:47:22.570Z,2.70
2018-08-10T04:49:51.682Z,2.70
2018-08-10T04:52:20.881Z,2.90
2018-08-10T04:54:50.400Z,2.90
2018-08-10T04:57:19.263Z,2.63
2018-08-10T04:59:48.234Z,2.60
2018-08-10T05:02:17.143Z,3.13
2018-08-10T05:04:45.999Z,2.40
2018-08-10T05:07:14.937Z,2.30
2018-08-10T05:09:43.848Z,2.53
2018-08-10T05:12:12.723Z,2.77
2018-08-10T05:14:41.612Z,3.20
2018-08-10T05:17:10.799Z,2.80
2018-08-10T05:19:39.920Z,2.80
2018-08-10T05:22:09.004Z,3.53
2018-08-10T05:24:37.915Z,2.17
2018-08-10T05:27:06.800Z,2.50
2018-08-10T05:29:35.698Z,2.40
2018-08-10T05:32:04.991Z,2.07
2018-08-10T05:34:33.868Z,2.47
2018-08-10T05:37:02.784Z,2.00
2018-08-10T05:39:31.671Z,1.93
2018-08-10T05:42:00.862Z,2.10
2018-08-10T05:44:29.751Z,2.00
2018-08-10T05:46:58.800Z,1.90
2018-08-10T05:49:27.614Z,2.00
2018-08-10T05:51:56.793Z,2.07
2018-08-10T05:54:25.928Z,1.80
2018-08-10T05:56:54.826Z,1.60
2018-08-10T05:59:24.847Z,1.70
2018-08-10T06:01:53.809Z,5.63
2018-08-10T06:04:22.698Z,1.60
2018-08-10T06:06:51.872Z,1.00
2018-08-10T06:09:20.806Z,0.97
2018-08-10T06:11:49.940Z,1.30
2018-08-10T06:14:18.828Z,1.17
2018-08-10T06:16:47.958Z,1.00
2018-08-10T06:19:27.212Z,1.00
2018-08-10T06:22:14.069Z,1.20
2018-08-10T06:24:42.992Z,1.10
2018-08-10T06:27:11.875Z,0.83
2018-08-10T06:29:40.869Z,1.30
2018-08-10T06:32:09.779Z,1.10
2018-08-10T06:34:38.892Z,1.20
2018-08-10T06:37:08.107Z,1.10
2018-08-10T06:39:38.275Z,1.20
2018-08-10T06:42:08.308Z,1.00
2018-08-10T06:44:37.399Z,1.10
2018-08-10T06:47:06.926Z,1.30
2018-08-10T06:49:36.660Z,1.27
2018-08-10T06:52:05.610Z,1.10
2018-08-10T06:54:34.906Z,1.10
2018-08-10T06:57:03.891Z,1.30
2018-08-10T06:59:32.778Z,1.33
2018-08-10T07:02:01.647Z,1.10
2018-08-10T07:04:30.798Z,1.20
2018-08-10T07:06:59.904Z,1.20
2018-08-10T07:09:29.235Z,1.40
2018-08-10T07:14:56.167Z,1.30
2018-08-10T07:17:25.035Z,1.10
2018-08-10T07:19:53.915Z,1.20
2018-08-10T07:22:22.814Z,1.13
2018-08-10T07:24:51.685Z,1.40
2018-08-10T07:27:20.860Z,1.10
2018-08-10T07:29:49.748Z,1.20
2018-08-10T07:32:18.608Z,1.43
2018-08-10T07:34:47.513Z,1.20
2018-08-10T07:37:16.456Z,0.90
2018-08-10T07:39:45.643Z,1.00
2018-08-10T07:42:14.777Z,1.07
2018-08-10T07:44:43.949Z,1.00
2018-08-10T07:47:13.070Z,1.27
2018-08-10T07:49:42.922Z,0.90
2018-08-10T07:52:11.875Z,0.90
2018-08-10T07:54:40.838Z,1.07
2018-08-10T07:57:09.989Z,0.90
2018-08-10T07:59:39.439Z,1.10
2018-08-10T08:02:08.373Z,0.80
2018-08-10T08:04:37.284Z,0.87
2018-08-10T08:07:06.540Z,0.80
2018-08-10T08:09:35.402Z,0.90
2018-08-10T08:12:04.406Z,1.00
2018-08-10T08:14:33.302Z,0.70
2018-08-10T08:17:02.278Z,1.30
2018-08-10T08:19:31.256Z,1.20
2018-08-10T08:22:10.798Z,0.97
2018-08-10T08:24:40.727Z,1.30
2018-08-10T08:27:10.095Z,1.20
2018-08-10T08:29:39.313Z,0.90
2018-08-10T08:32:08.422Z,1.10
2018-08-10T08:34:37.347Z,1.00
2018-08-10T08:37:06.477Z,1.27
2018-08-10T08:40:47.901Z,1.30
2018-08-10T08:43:28.163Z,1.13
2018-08-10T08:46:13.186Z,1.10
2018-08-10T08:48:43.390Z,1.70
2018-08-10T08:51:14.950Z,0.93
2018-08-10T08:53:43.891Z,1.10
2018-08-10T08:56:17.291Z,1.53
2018-08-10T08:58:47.530Z,1.10
2018-08-10T09:01:16.820Z,1.30
2018-08-10T09:04:58.413Z,1.20
2018-08-10T09:07:28.787Z,7.27
2018-08-10T09:09:59.216Z,21.10
2018-08-10T09:12:28.248Z,49.40
2018-08-10T09:15:01.953Z,21.00
2018-08-10T09:17:30.927Z,16.33
2018-08-10T09:19:59.873Z,14.10
2018-08-10T09:22:29.176Z,15.70
2018-08-10T09:24:58.092Z,12.60
2018-08-10T09:27:27.340Z,10.10
2018-08-10T09:29:56.651Z,4.63
2018-08-10T09:32:25.531Z,4.30
2018-08-10T09:34:54.458Z,2.37
2018-08-10T09:37:23.364Z,1.70
2018-08-10T09:39:52.229Z,1.90
2018-08-10T09:42:21.186Z,1.60
2018-08-10T09:44:50.071Z,1.23
2018-08-10T09:47:18.959Z,1.50
2018-08-10T09:49:49.352Z,1.30
2018-08-10T09:52:18.315Z,1.50
2018-08-10T09:55:27.824Z,1.53
2018-08-10T09:58:01.367Z,1.40
2018-08-10T10:00:36.151Z,1.30
2018-08-10T10:03:10.585Z,1.47
2018-08-10T10:05:39.708Z,1.40
2018-08-10T10:08:08.582Z,1.30
2018-08-10T10:10:37.591Z,1.30
2018-08-10T10:13:06.548Z,1.50
2018-08-10T10:15:35.419Z,1.30
2018-08-10T10:18:05.727Z,1.53
2018-08-10T10:20:34.857Z,1.53
2018-08-10T10:23:04.169Z,1.27
2018-08-10T10:25:33.663Z,1.60
2018-08-10T10:28:02.922Z,1.40
2018-08-10T10:30:32.092Z,1.67
2018-08-10T10:33:01.128Z,1.60
2018-08-10T10:35:30.567Z,1.40
2018-08-10T10:37:59.510Z,1.67
2018-08-10T10:40:28.393Z,1.50
2018-08-10T10:42:57.368Z,1.37
2018-08-10T10:45:26.715Z,1.70
2018-08-10T10:47:55.634Z,1.80
2018-08-10T10:50:24.825Z,1.50
2018-08-10T10:52:53.743Z,1.60
2018-08-10T10:55:24.345Z,1.90
2018-08-10T10:57:53.777Z,1.40
2018-08-10T11:00:24.932Z,1.67
2018-08-10T11:02:54.094Z,1.30
2018-08-10T11:05:24.648Z,1.60
2018-08-10T11:07:55.179Z,1.70
2018-08-10T11:10:27.359Z,2.20
2018-08-10T11:13:05.467Z,1.63
2018-08-10T11:15:35.794Z,1.67
2018-08-10T11:18:13.790Z,1.60
2018-08-10T11:20:44.638Z,1.50
2018-08-10T11:23:28.891Z,1.50
2018-08-10T11:25:59.844Z,1.60
2018-08-10T11:28:30.488Z,1.57
2018-08-10T11:31:01.267Z,1.40
2018-08-10T11:33:30.384Z,1.87
2018-08-10T11:35:59.306Z,1.70
2018-08-10T11:38:28.191Z,1.67
2018-08-10T11:40:57.092Z,1.90
2018-08-10T11:43:27.907Z,1.43
2018-08-10T11:45:58.257Z,1.63
2018-08-10T11:48:46.905Z,2.10
2018-08-10T11:51:20.614Z,1.80
2018-08-10T11:53:50.902Z,2.20
2018-08-10T11:56:21.130Z,2.20
2018-08-10T11:58:52.373Z,1.80
2018-08-10T12:01:21.482Z,1.80
2018-08-10T12:03:50.544Z,1.77
2018-08-10T12:06:20.269Z,1.80
2018-08-10T12:08:49.160Z,1.70
2018-08-10T12:11:19.934Z,1.67
2018-08-10T12:13:48.924Z,1.50
2018-08-10T12:16:18.687Z,1.40
2018-08-10T12:18:49.460Z,1.60
2018-08-10T12:21:18.602Z,1.63
2018-08-10T12:23:47.541Z,1.50
2018-08-10T12:26:22.127Z,1.50
2018-08-10T12:28:51.327Z,3.40
2018-08-10T12:31:20.483Z,2.50
2018-08-10T12:33:50.091Z,1.97
2018-08-10T12:36:19.220Z,1.60
2018-08-10T12:38:48.287Z,1.80
2018-08-10T12:41:18.134Z,1.87
2018-08-10T12:43:47.028Z,1.80
2018-08-10T12:46:16.010Z,1.43
2018-08-10T12:48:45.427Z,1.93
2018-08-10T12:51:14.459Z,1.80
2018-08-10T12:53:44.187Z,1.50
2018-08-10T12:56:15.053Z,1.53
2018-08-10T12:58:44.733Z,1.70
2018-08-10T13:01:14.102Z,1.50
2018-08-10T13:03:42.994Z,1.50
2018-08-10T13:06:13.954Z,1.50
2018-08-10T13:08:43.273Z,1.73
2018-08-10T13:11:12.170Z,1.60
2018-08-10T13:13:41.644Z,1.50
2018-08-10T13:16:10.543Z,1.40
2018-08-10T13:18:40.218Z,1.20
2018-08-10T13:21:09.381Z,1.20
2018-08-10T13:23:38.494Z,1.20
2018-08-10T13:26:07.678Z,1.60
2018-08-10T13:28:36.634Z,1.17
2018-08-10T13:31:05.557Z,1.13
2018-08-10T13:33:34.469Z,1.10
2018-08-10T13:36:04.403Z,1.60
2018-08-10T13:38:33.404Z,1.20
2018-08-10T13:41:02.971Z,1.70
2018-08-10T13:43:31.791Z,1.50
2018-08-10T13:46:00.916Z,1.50
2018-08-10T13:48:30.045Z,1.47
2018-08-10T13:50:58.950Z,2.03
2018-08-10T13:53:27.913Z,3.70
2018-08-10T13:55:57.054Z,2.20
2018-08-10T13:58:26.044Z,1.70
2018-08-10T14:00:54.992Z,1.80
2018-08-10T14:03:24.255Z,1.10
2018-08-10T14:05:53.301Z,1.23
2018-08-10T14:08:22.576Z,1.33
2018-08-10T14:10:51.834Z,1.20
2018-08-10T14:13:20.754Z,1.10
2018-08-10T14:15:49.797Z,1.20
2018-08-10T14:18:18.675Z,1.10
2018-08-10T14:20:47.849Z,1.17
2018-08-10T14:23:17.275Z,1.10
2018-08-10T14:25:46.239Z,1.30
2018-08-10T14:28:15.183Z,1.13
2018-08-10T14:30:44.118Z,1.17
2018-08-10T14:33:13.081Z,1.87
2018-08-10T14:35:42.010Z,1.13
2018-08-10T14:38:10.925Z,1.20
2018-08-10T14:40:39.883Z,2.73
2018-08-10T14:43:08.767Z,2.43
2018-08-10T14:45:37.739Z,2.00
2018-08-10T14:48:06.677Z,1.53
2018-08-10T14:50:35.660Z,1.53
2018-08-10T14:53:04.550Z,1.27
2018-08-10T14:55:33.507Z,1.50
2018-08-10T14:58:02.528Z,1.10
2018-08-10T15:00:31.469Z,1.30
2018-08-10T15:03:00.410Z,1.10
2018-08-10T15:05:29.309Z,1.00
2018-08-10T15:07:58.738Z,1.30
2018-08-10T15:10:28.905Z,1.20
2018-08-10T15:12:59.752Z,1.20
2018-08-10T15:15:30.736Z,1.23
2018-08-10T15:17:59.802Z,1.20
2018-08-10T15:20:28.717Z,1.40
2018-08-10T15:22:58.077Z,1.10
2018-08-10T15:25:26.976Z,1.00
2018-08-10T15:27:55.891Z,1.30
2018-08-10T15:30:24.806Z,1.17
2018-08-10T15:32:53.990Z,2.10
2018-08-10T15:35:22.927Z,2.33
2018-08-10T15:37:52.161Z,1.70
2018-08-10T15:40:21.075Z,1.37
2018-08-10T15:42:50.015Z,1.10
2018-08-10T15:45:19.394Z,1.30
2018-08-10T15:47:48.474Z,1.27
2018-08-10T15:50:17.658Z,1.20
2018-08-10T15:52:46.702Z,0.97
2018-08-10T15:55:15.606Z,1.20
2018-08-10T15:57:44.595Z,1.20
2018-08-10T16:00:20.002Z,1.33
2018-08-10T16:02:49.205Z,1.30
2018-08-10T16:05:18.368Z,1.10
2018-08-10T16:07:47.512Z,4.53
2018-08-10T16:10:16.522Z,1.53
2018-08-10T16:12:45.690Z,4.40
2018-08-10T16:15:16.912Z,2.00
2018-08-10T16:17:45.853Z,2.60
2018-08-10T16:20:17.336Z,1.57
2018-08-10T16:22:46.578Z,2.17
2018-08-10T16:25:15.510Z,1.40
2018-08-10T16:27:45.363Z,1.40
2018-08-10T16:30:15.301Z,1.97
2018-08-10T16:32:45.048Z,1.40
2018-08-10T16:35:14.726Z,1.60
2018-08-10T16:37:44.803Z,1.50
2018-08-10T16:40:14.865Z,1.63
2018-08-10T16:42:44.299Z,1.33
2018-08-10T16:45:14.739Z,1.13
2018-08-10T16:47:44.165Z,1.27
2018-08-10T16:50:15.197Z,1.40
2018-08-10T16:52:44.778Z,2.60
2018-08-10T16:55:16.112Z,6.63
2018-08-10T16:57:46.011Z,1.27
2018-08-10T17:00:16.562Z,2.47
2018-08-10T17:02:46.134Z,1.73
2018-08-10T17:05:15.324Z,1.70
2018-08-10T17:07:44.799Z,1.73
2018-08-10T17:10:13.762Z,1.50
2018-08-10T17:12:44.219Z,1.73
2018-08-10T17:15:14.899Z,1.40
2018-08-10T17:17:44.967Z,15.27
2018-08-10T17:20:14.351Z,2.60
2018-08-10T17:22:43.850Z,4.23
2018-08-10T17:25:18.265Z,3.30
2018-08-10T17:27:47.360Z,1.70
2018-08-10T17:30:17.718Z,1.40
2018-08-10T17:32:46.877Z,1.70
2018-08-10T17:35:17.310Z,1.37
2018-08-10T17:37:46.830Z,1.27
2018-08-10T17:40:15.810Z,1.30
2018-08-10T17:42:44.946Z,1.40
2018-08-10T17:45:15.316Z,1.20
2018-08-10T17:47:44.155Z,1.47
2018-08-10T17:50:17.002Z,1.20
2018-08-10T17:52:47.672Z,1.30
2018-08-10T17:55:17.247Z,1.43
2018-08-10T17:57:46.484Z,1.43
2018-08-10T18:00:17.535Z,1.40
2018-08-10T18:02:46.878Z,1.63
2018-08-10T18:05:17.141Z,1.90
2018-08-10T18:07:46.202Z,2.10
2018-08-10T18:10:15.918Z,1.70
2018-08-10T18:12:45.724Z,2.30
2018-08-10T18:15:16.117Z,1.40
2018-08-10T18:17:45.658Z,1.57
2018-08-10T18:20:18.010Z,1.23
2018-08-10T18:22:47.996Z,2.93
2018-08-10T18:25:18.231Z,1.57
2018-08-10T18:27:47.612Z,1.60
2018-08-10T18:30:25.584Z,1.93
2018-08-10T18:32:54.541Z,1.77
2018-08-10T18:35:23.798Z,2.07
2018-08-10T18:37:53.290Z,1.60
2018-08-10T18:40:22.417Z,2.10
2018-08-10T18:42:51.562Z,1.97
2018-08-10T18:45:22.379Z,1.80
2018-08-10T18:47:51.430Z,1.60
2018-08-10T18:50:20.796Z,2.00
2018-08-10T18:52:50.140Z,1.50
2018-08-10T18:55:21.239Z,1.90
2018-08-10T18:57:51.055Z,1.63
2018-08-10T19:00:21.895Z,1.73
2018-08-10T19:02:50.866Z,1.90
2018-08-10T19:05:19.837Z,2.27
2018-08-10T19:07:49.400Z,1.87
2018-08-10T19:10:22.809Z,1.70
2018-08-10T19:12:51.752Z,3.23
2018-08-10T19:15:21.033Z,2.30
2018-08-10T19:17:49.920Z,2.00
2018-08-10T19:20:18.909Z,2.10
2018-08-10T19:22:49.756Z,1.83
2018-08-10T19:25:20.711Z,2.10
2018-08-10T19:27:49.839Z,2.10
2018-08-10T19:30:20.187Z,2.20
2018-08-10T19:32:49.329Z,2.37
2018-08-10T19:35:18.824Z,1.97
2018-08-10T19:37:47.771Z,2.33
2018-08-10T19:40:18.127Z,2.20
2018-08-10T19:42:47.106Z,1.70
2018-08-10T19:45:17.154Z,2.17
2018-08-10T19:47:46.158Z,2.20
2018-08-10T19:50:16.273Z,1.90
2018-08-10T19:52:45.161Z,2.10
2018-08-10T19:55:14.795Z,3.30
2018-08-10T19:57:43.761Z,2.60
2018-08-10T20:00:14.303Z,2.37
2018-08-10T20:02:43.316Z,2.43
2018-08-10T20:05:12.233Z,2.40
2018-08-10T20:07:41.384Z,1.90
2018-08-10T20:10:11.702Z,2.60
2018-08-10T20:12:40.627Z,2.20
2018-08-10T20:15:12.433Z,2.30
2018-08-10T20:17:41.860Z,2.70
2018-08-10T20:20:15.357Z,2.10
2018-08-10T20:22:44.990Z,3.50
2018-08-10T20:25:14.766Z,3.13
2018-08-10T20:27:43.996Z,2.90
2018-08-10T20:30:14.612Z,3.40
2018-08-10T20:32:43.874Z,5.87
2018-08-10T20:35:16.238Z,6.03
2018-08-10T20:37:45.318Z,4.93
2018-08-10T20:40:16.546Z,4.90
2018-08-10T20:42:45.575Z,4.93
2018-08-10T20:45:14.735Z,5.40
2018-08-10T20:47:43.740Z,5.23
2018-08-10T20:50:15.101Z,5.30
2018-08-10T20:52:44.743Z,5.90
2018-08-10T20:55:14.257Z,5.30
2018-08-10T20:57:43.807Z,5.53
2018-08-10T21:00:13.485Z,5.30
2018-08-10T21:02:43.742Z,6.20
2018-08-10T21:05:13.365Z,6.90
2018-08-10T21:07:42.530Z,5.50
2018-08-10T21:10:13.056Z,5.80
2018-08-10T21:12:42.842Z,4.83
2018-08-10T21:15:12.957Z,4.97
2018-08-10T21:17:42.769Z,4.73
2018-08-10T21:20:12.898Z,4.70
2018-08-10T21:22:41.756Z,4.70
2018-08-10T21:25:11.519Z,5.33
2018-08-10T21:27:41.198Z,4.23
2018-08-10T21:30:16.552Z,5.13
2018-08-10T21:32:47.508Z,5.33
2018-08-10T21:35:16.404Z,4.40
2018-08-10T21:37:45.321Z,4.40
2018-08-10T21:40:14.211Z,4.60
2018-08-10T21:42:43.724Z,4.30
2018-08-10T21:45:12.613Z,4.10
2018-08-10T21:47:41.503Z,3.60
2018-08-10T21:50:14.043Z,3.70
2018-08-10T21:52:43.724Z,3.87
2018-08-10T21:55:12.811Z,3.77
2018-08-10T21:57:42.058Z,3.50
2018-08-10T22:00:20.382Z,4.13
2018-08-10T22:02:50.762Z,4.20
2018-08-10T22:05:20.124Z,4.60
2018-08-10T22:07:49.281Z,4.10
2018-08-10T22:10:18.458Z,4.27
2018-08-10T22:12:47.368Z,4.63
2018-08-10T22:15:22.222Z,4.63
2018-08-10T22:17:56.545Z,4.33
2018-08-10T22:20:25.498Z,4.67
2018-08-10T22:22:54.470Z,3.40
2018-08-10T22:25:23.674Z,3.67
2018-08-10T22:27:52.921Z,3.53
2018-08-10T22:30:21.959Z,3.60
2018-08-10T22:32:50.950Z,3.03
2018-08-10T22:35:20.047Z,3.17
2018-08-10T22:37:49.057Z,3.83
2018-08-10T22:40:17.950Z,2.90
2018-08-10T22:42:47.134Z,3.27
2018-08-10T22:45:16.391Z,3.30
2018-08-10T22:47:45.273Z,2.83
2018-08-10T22:50:14.454Z,3.43
2018-08-10T22:52:43.346Z,3.37
2018-08-10T22:55:12.547Z,3.27
2018-08-10T22:57:41.435Z,2.90
2018-08-10T23:00:10.307Z,3.23
2018-08-10T23:02:39.224Z,3.37
2018-08-10T23:05:08.501Z,2.40
2018-08-10T23:07:37.478Z,3.67
2018-08-10T23:10:07.905Z,2.90
2018-08-10T23:12:36.767Z,3.10
2018-08-10T23:15:06.368Z,3.10
2018-08-10T23:17:35.286Z,2.77
2018-08-10T23:20:06.159Z,3.40
2018-08-10T23:22:35.320Z,3.00
2018-08-10T23:25:05.823Z,2.67
2018-08-10T23:27:34.750Z,2.50
2018-08-10T23:30:04.722Z,2.80
2018-08-10T23:32:33.894Z,2.87
2018-08-10T23:35:02.810Z,2.60
2018-08-10T23:37:31.702Z,2.50
2018-08-10T23:40:00.903Z,2.80
2018-08-10T23:42:29.823Z,2.77
2018-08-10T23:44:58.718Z,2.80
2018-08-10T23:47:27.621Z,2.90
2018-08-10T23:49:56.527Z,2.70
2018-08-10T23:52:25.696Z,2.30
2018-08-10T23:54:54.726Z,3.23
2018-08-10T23:57:23.847Z,2.37
2018-08-10T23:59:52.721Z,2.83
